sensor_id;sensor_type;location;lat;lon;timestamp;pressure;altitude;pressure_sealevel;temperature;humidity
18167;BME280;9208;42.688;23.404;2023-02-13T00:00:21;97253.16;;;0.93;100.00
18167;BME280;9208;42.688;23.404;2023-02-13T00:02:47;97253.59;;;0.98;100.00
18167;BME280;9208;42.688;23.404;2023-02-13T00:05:12;97255.09;;;0.96;100.00
18167;BME280;9208;42.688;23.404;2023-02-13T00:07:38;97258.59;;;0.96;100.00
18167;BME280;9208;42.688;23.404;2023-02-13T00:10:04;97263.16;;;0.89;100.00
18167;BME280;9208;42.688;23.404;2023-02-13T00:12:30;97258.13;;;0.87;100.00
18167;BME280;9208;42.688;23.404;2023-02-13T00:14:55;97252.25;;;0.78;100.00
18167;BME280;9208;42.688;23.404;2023-02-13T00:17:21;97258.44;;;0.82;100.00
18167;BME280;9208;42.688;23.404;2023-02-13T00:19:46;97267.72;;;0.81;100.00
18167;BME280;9208;42.688;23.404;2023-02-13T00:22:11;97259.59;;;0.81;100.00
18167;BME280;9208;42.688;23.404;2023-02-13T00:24:37;97261.53;;;0.84;100.00
18167;BME280;9208;42.688;23.404;2023-02-13T00:27:02;97257.31;;;0.83;100.00
18167;BME280;9208;42.688;23.404;2023-02-13T00:29:28;97260.38;;;0.82;100.00
18167;BME280;9208;42.688;23.404;2023-02-13T00:31:53;97272.00;;;0.89;100.00
18167;BME280;9208;42.688;23.404;2023-02-13T00:34:18;97264.28;;;0.88;100.00
18167;BME280;9208;42.688;23.404;2023-02-13T00:36:44;97260.41;;;0.85;100.00
18167;BME280;9208;42.688;23.404;2023-02-13T00:39:11;97264.28;;;0.88;100.00
18167;BME280;9208;42.688;23.404;2023-02-13T00:41:37;97259.69;;;0.92;100.00
18167;BME280;9208;42.688;23.404;2023-02-13T00:44:02;97264.75;;;0.97;100.00
18167;BME280;9208;42.688;23.404;2023-02-13T00:46:28;97269.19;;;1.19;100.00
18167;BME280;9208;42.688;23.404;2023-02-13T00:48:53;97274.19;;;1.13;100.00
18167;BME280;9208;42.688;23.404;2023-02-13T00:51:19;97270.59;;;1.02;100.00
18167;BME280;9208;42.688;23.404;2023-02-13T00:53:44;97272.06;;;0.93;100.00
18167;BME280;9208;42.688;23.404;2023-02-13T00:56:09;97277.84;;;0.91;100.00
18167;BME280;9208;42.688;23.404;2023-02-13T00:58:35;97274.69;;;0.86;100.00
18167;BME280;9208;42.688;23.404;2023-02-13T01:01:01;97283.72;;;0.67;100.00
18167;BME280;9208;42.688;23.404;2023-02-13T01:03:26;97284.44;;;0.61;100.00
18167;BME280;9208;42.688;23.404;2023-02-13T01:05:52;97282.94;;;0.63;100.00
18167;BME280;9208;42.688;23.404;2023-02-13T01:08:18;97284.50;;;0.68;100.00
18167;BME280;9208;42.688;23.404;2023-02-13T01:10:46;97279.91;;;0.68;100.00
18167;BME280;9208;42.688;23.404;2023-02-13T01:13:13;97277.56;;;0.67;100.00
18167;BME280;9208;42.688;23.404;2023-02-13T01:15:39;97283.56;;;0.53;100.00
18167;BME280;9208;42.688;23.404;2023-02-13T01:18:04;97280.16;;;0.56;100.00
18167;BME280;9208;42.688;23.404;2023-02-13T01:20:30;97275.41;;;0.46;100.00
18167;BME280;9208;42.688;23.404;2023-02-13T01:22:56;97283.03;;;0.41;100.00
18167;BME280;9208;42.688;23.404;2023-02-13T01:25:22;97294.13;;;0.32;100.00
18167;BME280;9208;42.688;23.404;2023-02-13T01:27:49;97295.56;;;0.26;100.00
18167;BME280;9208;42.688;23.404;2023-02-13T01:30:15;97279.47;;;0.30;100.00
18167;BME280;9208;42.688;23.404;2023-02-13T01:32:43;97293.63;;;0.23;100.00
18167;BME280;9208;42.688;23.404;2023-02-13T01:35:10;97291.69;;;0.23;100.00
18167;BME280;9208;42.688;23.404;2023-02-13T01:37:36;97290.16;;;0.22;100.00
18167;BME280;9208;42.688;23.404;2023-02-13T01:40:03;97295.44;;;0.15;100.00
18167;BME280;9208;42.688;23.404;2023-02-13T01:42:31;97291.97;;;0.15;100.00
18167;BME280;9208;42.688;23.404;2023-02-13T01:45:44;97296.00;;;0.28;100.00
18167;BME280;9208;42.688;23.404;2023-02-13T01:47:47;97303.28;;;0.24;100.00
18167;BME280;9208;42.688;23.404;2023-02-13T01:50:19;97300.38;;;0.10;100.00
18167;BME280;9208;42.688;23.404;2023-02-13T01:52:50;97301.09;;;0.07;100.00
18167;BME280;9208;42.688;23.404;2023-02-13T01:55:17;97307.28;;;0.08;100.00
18167;BME280;9208;42.688;23.404;2023-02-13T01:57:48;97300.06;;;0.15;100.00
18167;BME280;9208;42.688;23.404;2023-02-13T02:00:16;97305.13;;;0.20;100.00
18167;BME280;9208;42.688;23.404;2023-02-13T02:02:45;97298.28;;;0.26;100.00
18167;BME280;9208;42.688;23.404;2023-02-13T02:05:12;97301.94;;;0.11;100.00
18167;BME280;9208;42.688;23.404;2023-02-13T02:07:39;97301.91;;;0.08;100.00
18167;BME280;9208;42.688;23.404;2023-02-13T02:10:12;97296.66;;;-0.08;100.00
18167;BME280;9208;42.688;23.404;2023-02-13T02:15:16;97296.19;;;-0.14;100.00
18167;BME280;9208;42.688;23.404;2023-02-13T02:17:42;97295.72;;;-0.19;100.00
18167;BME280;9208;42.688;23.404;2023-02-13T02:26:10;97297.16;;;-0.29;100.00
18167;BME280;9208;42.688;23.404;2023-02-13T02:34:24;97287.44;;;-0.33;100.00
18167;BME280;9208;42.688;23.404;2023-02-13T02:39:29;97310.75;;;-0.18;100.00
18167;BME280;9208;42.688;23.404;2023-02-13T02:42:06;97310.41;;;-0.17;100.00
18167;BME280;9208;42.688;23.404;2023-02-13T02:44:44;97309.13;;;-0.26;100.00
18167;BME280;9208;42.688;23.404;2023-02-13T02:47:27;97315.53;;;-0.34;100.00
18167;BME280;9208;42.688;23.404;2023-02-13T02:50:36;97323.63;;;-0.34;100.00
18167;BME280;9208;42.688;23.404;2023-02-13T02:53:48;97334.75;;;-0.36;100.00
18167;BME280;9208;42.688;23.404;2023-02-13T02:55:52;97331.84;;;-0.50;100.00
18167;BME280;9208;42.688;23.404;2023-02-13T02:58:39;97340.72;;;-0.49;100.00
18167;BME280;9208;42.688;23.404;2023-02-13T03:01:27;97332.84;;;-0.35;100.00
18167;BME280;9208;42.688;23.404;2023-02-13T03:07:06;97330.44;;;-0.14;100.00
18167;BME280;9208;42.688;23.404;2023-02-13T03:09:38;97328.59;;;-0.10;100.00
18167;BME280;9208;42.688;23.404;2023-02-13T03:12:28;97323.72;;;-0.01;100.00
18167;BME280;9208;42.688;23.404;2023-02-13T03:15:13;97324.53;;;0.03;100.00
18167;BME280;9208;42.688;23.404;2023-02-13T03:17:39;97333.91;;;0.09;100.00
18167;BME280;9208;42.688;23.404;2023-02-13T03:24:01;97329.41;;;0.20;100.00
18167;BME280;9208;42.688;23.404;2023-02-13T03:38:26;97312.38;;;0.13;100.00
18167;BME280;9208;42.688;23.404;2023-02-13T03:40:59;97318.66;;;0.23;100.00
18167;BME280;9208;42.688;23.404;2023-02-13T03:46:21;97327.75;;;0.12;100.00
18167;BME280;9208;42.688;23.404;2023-02-13T03:48:50;97332.63;;;0.03;100.00
18167;BME280;9208;42.688;23.404;2023-02-13T03:54:33;97307.50;;;-0.31;100.00
18167;BME280;9208;42.688;23.404;2023-02-13T03:57:23;97334.41;;;-0.34;100.00
18167;BME280;9208;42.688;23.404;2023-02-13T04:00:14;97333.88;;;-0.43;100.00
18167;BME280;9208;42.688;23.404;2023-02-13T04:05:26;97331.72;;;-0.57;100.00
18167;BME280;9208;42.688;23.404;2023-02-13T04:07:54;97330.09;;;-0.61;100.00
18167;BME280;9208;42.688;23.404;2023-02-13T04:10:20;97324.78;;;-0.58;100.00
18167;BME280;9208;42.688;23.404;2023-02-13T04:13:02;97326.75;;;-0.55;100.00
18167;BME280;9208;42.688;23.404;2023-02-13T04:15:40;97326.94;;;-0.67;100.00
18167;BME280;9208;42.688;23.404;2023-02-13T04:18:20;97336.63;;;-0.62;100.00
18167;BME280;9208;42.688;23.404;2023-02-13T04:20:46;97338.34;;;-0.73;100.00
18167;BME280;9208;42.688;23.404;2023-02-13T04:23:12;97337.50;;;-0.77;100.00
18167;BME280;9208;42.688;23.404;2023-02-13T04:25:40;97348.97;;;-0.61;100.00
18167;BME280;9208;42.688;23.404;2023-02-13T04:28:06;97347.34;;;-0.43;100.00
18167;BME280;9208;42.688;23.404;2023-02-13T04:30:32;97344.47;;;-0.31;100.00
18167;BME280;9208;42.688;23.404;2023-02-13T04:32:57;97340.81;;;-0.42;100.00
18167;BME280;9208;42.688;23.404;2023-02-13T04:35:26;97341.13;;;-0.47;100.00
18167;BME280;9208;42.688;23.404;2023-02-13T04:37:51;97333.28;;;-0.56;100.00
18167;BME280;9208;42.688;23.404;2023-02-13T04:40:17;97327.72;;;-0.66;100.00
18167;BME280;9208;42.688;23.404;2023-02-13T04:42:42;97331.38;;;-0.78;100.00
18167;BME280;9208;42.688;23.404;2023-02-13T04:45:08;97332.97;;;-0.73;100.00
18167;BME280;9208;42.688;23.404;2023-02-13T04:47:34;97338.78;;;-0.71;100.00
18167;BME280;9208;42.688;23.404;2023-02-13T04:49:59;97343.75;;;-0.73;100.00
18167;BME280;9208;42.688;23.404;2023-02-13T04:52:24;97345.47;;;-0.62;100.00
18167;BME280;9208;42.688;23.404;2023-02-13T04:54:50;97350.81;;;-0.43;100.00
18167;BME280;9208;42.688;23.404;2023-02-13T04:57:15;97355.94;;;-0.34;100.00
18167;BME280;9208;42.688;23.404;2023-02-13T04:59:41;97354.84;;;-0.30;100.00
18167;BME280;9208;42.688;23.404;2023-02-13T05:02:06;97348.41;;;-0.25;100.00
18167;BME280;9208;42.688;23.404;2023-02-13T05:04:32;97347.38;;;-0.17;100.00
18167;BME280;9208;42.688;23.404;2023-02-13T05:06:57;97353.59;;;-0.13;100.00
18167;BME280;9208;42.688;23.404;2023-02-13T05:09:23;97367.59;;;-0.04;100.00
18167;BME280;9208;42.688;23.404;2023-02-13T05:11:55;97353.38;;;-0.01;100.00
18167;BME280;9208;42.688;23.404;2023-02-13T05:14:20;97364.59;;;0.01;100.00
18167;BME280;9208;42.688;23.404;2023-02-13T05:16:46;97361.81;;;-0.03;100.00
18167;BME280;9208;42.688;23.404;2023-02-13T05:19:11;97366.81;;;-0.05;100.00
18167;BME280;9208;42.688;23.404;2023-02-13T05:21:37;97373.69;;;-0.07;100.00
18167;BME280;9208;42.688;23.404;2023-02-13T05:24:21;97376.72;;;-0.12;100.00
18167;BME280;9208;42.688;23.404;2023-02-13T05:26:47;97384.06;;;-0.09;100.00
18167;BME280;9208;42.688;23.404;2023-02-13T05:29:12;97369.19;;;0.00;100.00
18167;BME280;9208;42.688;23.404;2023-02-13T05:32:02;97372.69;;;0.01;100.00
18167;BME280;9208;42.688;23.404;2023-02-13T05:34:28;97375.06;;;0.06;100.00
18167;BME280;9208;42.688;23.404;2023-02-13T05:36:53;97368.03;;;0.01;100.00
18167;BME280;9208;42.688;23.404;2023-02-13T05:39:19;97373.50;;;0.05;100.00
18167;BME280;9208;42.688;23.404;2023-02-13T05:41:45;97387.75;;;0.05;100.00
18167;BME280;9208;42.688;23.404;2023-02-13T05:44:12;97385.41;;;0.04;100.00
18167;BME280;9208;42.688;23.404;2023-02-13T05:46:39;97379.25;;;0.03;100.00
18167;BME280;9208;42.688;23.404;2023-02-13T05:49:05;97389.53;;;-0.06;100.00
18167;BME280;9208;42.688;23.404;2023-02-13T05:51:31;97388.03;;;-0.03;100.00
18167;BME280;9208;42.688;23.404;2023-02-13T05:53:57;97383.38;;;-0.03;100.00
18167;BME280;9208;42.688;23.404;2023-02-13T05:56:22;97391.38;;;-0.10;100.00
18167;BME280;9208;42.688;23.404;2023-02-13T05:58:52;97382.63;;;-0.03;100.00
18167;BME280;9208;42.688;23.404;2023-02-13T06:01:18;97389.09;;;-0.08;100.00
18167;BME280;9208;42.688;23.404;2023-02-13T06:03:44;97388.84;;;0.01;100.00
18167;BME280;9208;42.688;23.404;2023-02-13T06:06:09;97395.09;;;0.05;100.00
18167;BME280;9208;42.688;23.404;2023-02-13T06:08:35;97391.19;;;0.03;100.00
18167;BME280;9208;42.688;23.404;2023-02-13T06:11:00;97391.97;;;0.03;100.00
18167;BME280;9208;42.688;23.404;2023-02-13T06:13:26;97396.69;;;0.09;100.00
18167;BME280;9208;42.688;23.404;2023-02-13T06:15:51;97400.16;;;0.10;100.00
18167;BME280;9208;42.688;23.404;2023-02-13T06:18:17;97399.91;;;0.18;100.00
18167;BME280;9208;42.688;23.404;2023-02-13T06:20:42;97403.81;;;0.24;100.00
18167;BME280;9208;42.688;23.404;2023-02-13T06:23:08;97401.19;;;0.28;100.00
18167;BME280;9208;42.688;23.404;2023-02-13T06:25:35;97406.00;;;0.42;100.00
18167;BME280;9208;42.688;23.404;2023-02-13T06:28:01;97403.88;;;0.54;100.00
18167;BME280;9208;42.688;23.404;2023-02-13T06:30:27;97407.03;;;0.60;100.00
18167;BME280;9208;42.688;23.404;2023-02-13T06:32:52;97415.22;;;0.67;100.00
18167;BME280;9208;42.688;23.404;2023-02-13T06:35:18;97401.81;;;0.74;100.00
18167;BME280;9208;42.688;23.404;2023-02-13T06:37:43;97416.22;;;0.85;100.00
18167;BME280;9208;42.688;23.404;2023-02-13T06:40:10;97410.13;;;0.91;100.00
18167;BME280;9208;42.688;23.404;2023-02-13T06:42:36;97415.22;;;0.96;100.00
18167;BME280;9208;42.688;23.404;2023-02-13T06:45:02;97413.34;;;1.00;100.00
18167;BME280;9208;42.688;23.404;2023-02-13T06:47:27;97417.69;;;1.08;100.00
18167;BME280;9208;42.688;23.404;2023-02-13T06:49:52;97418.03;;;1.07;100.00
18167;BME280;9208;42.688;23.404;2023-02-13T06:52:19;97418.03;;;1.07;100.00
18167;BME280;9208;42.688;23.404;2023-02-13T06:54:44;97419.22;;;1.09;100.00
18167;BME280;9208;42.688;23.404;2023-02-13T06:57:09;97414.22;;;1.11;100.00
18167;BME280;9208;42.688;23.404;2023-02-13T06:59:35;97413.53;;;1.18;100.00
18167;BME280;9208;42.688;23.404;2023-02-13T07:02:00;97413.63;;;1.25;100.00
18167;BME280;9208;42.688;23.404;2023-02-13T07:04:26;97412.00;;;1.20;100.00
18167;BME280;9208;42.688;23.404;2023-02-13T07:06:55;97417.38;;;1.17;100.00
18167;BME280;9208;42.688;23.404;2023-02-13T07:09:22;97408.16;;;1.21;100.00
18167;BME280;9208;42.688;23.404;2023-02-13T07:11:48;97407.78;;;1.23;100.00
18167;BME280;9208;42.688;23.404;2023-02-13T07:14:13;97406.25;;;1.25;100.00
18167;BME280;9208;42.688;23.404;2023-02-13T07:16:39;97407.09;;;1.29;100.00
18167;BME280;9208;42.688;23.404;2023-02-13T07:19:04;97424.00;;;1.23;100.00
18167;BME280;9208;42.688;23.404;2023-02-13T07:21:29;97419.41;;;1.27;100.00
18167;BME280;9208;42.688;23.404;2023-02-13T07:23:55;97425.97;;;1.26;100.00
18167;BME280;9208;42.688;23.404;2023-02-13T07:26:20;97418.25;;;1.28;100.00
18167;BME280;9208;42.688;23.404;2023-02-13T07:28:46;97425.66;;;1.34;100.00
18167;BME280;9208;42.688;23.404;2023-02-13T07:31:14;97419.16;;;1.39;100.00
18167;BME280;9208;42.688;23.404;2023-02-13T07:33:39;97425.66;;;1.34;100.00
18167;BME280;9208;42.688;23.404;2023-02-13T07:36:05;97425.31;;;1.39;100.00
18167;BME280;9208;42.688;23.404;2023-02-13T07:38:31;97423.06;;;1.41;100.00
18167;BME280;9208;42.688;23.404;2023-02-13T07:41:01;97418.47;;;1.45;100.00
18167;BME280;9208;42.688;23.404;2023-02-13T07:43:31;97421.53;;;1.44;100.00
18167;BME280;9208;42.688;23.404;2023-02-13T07:46:00;97426.56;;;1.45;100.00
18167;BME280;9208;42.688;23.404;2023-02-13T07:48:27;97420.75;;;1.43;100.00
18167;BME280;9208;42.688;23.404;2023-02-13T07:50:53;97417.66;;;1.41;100.00
18167;BME280;9208;42.688;23.404;2023-02-13T07:53:19;97420.78;;;1.47;100.00
18167;BME280;9208;42.688;23.404;2023-02-13T07:55:46;97417.34;;;1.50;100.00
18167;BME280;9208;42.688;23.404;2023-02-13T07:58:12;97425.16;;;1.58;100.00
18167;BME280;9208;42.688;23.404;2023-02-13T08:00:37;97417.06;;;1.58;100.00
18167;BME280;9208;42.688;23.404;2023-02-13T08:03:03;97422.88;;;1.64;100.00
18167;BME280;9208;42.688;23.404;2023-02-13T08:05:30;97411.31;;;1.63;100.00
18167;BME280;9208;42.688;23.404;2023-02-13T08:07:59;97414.00;;;1.63;100.00
18167;BME280;9208;42.688;23.404;2023-02-13T08:10:24;97411.78;;;1.72;100.00
18167;BME280;9208;42.688;23.404;2023-02-13T08:13:09;97416.09;;;1.80;100.00
18167;BME280;9208;42.688;23.404;2023-02-13T08:15:35;97414.63;;;1.90;100.00
18167;BME280;9208;42.688;23.404;2023-02-13T08:18:01;97410.00;;;1.94;100.00
18167;BME280;9208;42.688;23.404;2023-02-13T08:20:26;97407.31;;;1.94;100.00
18167;BME280;9208;42.688;23.404;2023-02-13T08:22:52;97420.13;;;2.00;100.00
18167;BME280;9208;42.688;23.404;2023-02-13T08:25:18;97416.69;;;2.07;100.00
18167;BME280;9208;42.688;23.404;2023-02-13T08:27:44;97416.75;;;2.14;100.00
18167;BME280;9208;42.688;23.404;2023-02-13T08:30:11;97417.94;;;2.16;100.00
18167;BME280;9208;42.688;23.404;2023-02-13T08:32:37;97426.84;;;2.20;100.00
18167;BME280;9208;42.688;23.404;2023-02-13T08:35:02;97415.28;;;2.23;100.00
18167;BME280;9208;42.688;23.404;2023-02-13T08:37:28;97411.03;;;2.26;100.00
18167;BME280;9208;42.688;23.404;2023-02-13T08:39:53;97415.69;;;2.29;100.00
18167;BME280;9208;42.688;23.404;2023-02-13T08:42:19;97423.91;;;2.39;100.00
18167;BME280;9208;42.688;23.404;2023-02-13T08:44:44;97420.03;;;2.40;100.00
18167;BME280;9208;42.688;23.404;2023-02-13T08:47:10;97421.63;;;2.48;100.00
18167;BME280;9208;42.688;23.404;2023-02-13T08:49:35;97416.22;;;2.48;100.00
18167;BME280;9208;42.688;23.404;2023-02-13T08:52:01;97415.44;;;2.51;100.00
18167;BME280;9208;42.688;23.404;2023-02-13T08:54:27;97417.84;;;2.60;100.00
18167;BME280;9208;42.688;23.404;2023-02-13T08:56:55;97416.31;;;2.66;100.00
18167;BME280;9208;42.688;23.404;2023-02-13T08:59:21;97406.34;;;2.77;100.00
18167;BME280;9208;42.688;23.404;2023-02-13T09:01:47;97412.19;;;2.86;100.00
18167;BME280;9208;42.688;23.404;2023-02-13T09:04:13;97411.81;;;2.94;100.00
18167;BME280;9208;42.688;23.404;2023-02-13T09:06:43;97408.75;;;2.99;100.00
18167;BME280;9208;42.688;23.404;2023-02-13T09:09:09;97414.59;;;3.08;100.00
18167;BME280;9208;42.688;23.404;2023-02-13T09:11:34;97410.31;;;3.04;100.00
18167;BME280;9208;42.688;23.404;2023-02-13T09:14:00;97415.38;;;3.12;100.00
18167;BME280;9208;42.688;23.404;2023-02-13T09:16:25;97415.78;;;3.21;100.00
18167;BME280;9208;42.688;23.404;2023-02-13T09:18:51;97410.38;;;3.21;100.00
18167;BME280;9208;42.688;23.404;2023-02-13T09:21:18;97407.69;;;3.32;100.00
18167;BME280;9208;42.688;23.404;2023-02-13T09:23:44;97413.16;;;3.42;100.00
18167;BME280;9208;42.688;23.404;2023-02-13T09:26:11;97402.69;;;3.44;100.00
18167;BME280;9208;42.688;23.404;2023-02-13T09:28:38;97401.94;;;3.51;100.00
18167;BME280;9208;42.688;23.404;2023-02-13T09:31:15;97405.81;;;3.57;100.00
18167;BME280;9208;42.688;23.404;2023-02-13T09:33:42;97406.63;;;3.68;100.00
18167;BME280;9208;42.688;23.404;2023-02-13T09:36:13;97399.66;;;3.70;100.00
18167;BME280;9208;42.688;23.404;2023-02-13T09:38:41;97389.94;;;3.76;100.00
18167;BME280;9208;42.688;23.404;2023-02-13T09:41:22;97386.47;;;3.79;100.00
18167;BME280;9208;42.688;23.404;2023-02-13T09:44:14;97387.25;;;3.83;100.00
18167;BME280;9208;42.688;23.404;2023-02-13T09:47:04;97384.94;;;3.82;100.00
18167;BME280;9208;42.688;23.404;2023-02-13T09:49:34;97387.25;;;3.90;100.00
18167;BME280;9208;42.688;23.404;2023-02-13T09:52:01;97382.22;;;3.92;100.00
18167;BME280;9208;42.688;23.404;2023-02-13T09:54:27;97386.88;;;3.92;100.00
18167;BME280;9208;42.688;23.404;2023-02-13T09:59:42;97372.53;;;3.98;100.00
18167;BME280;9208;42.688;23.404;2023-02-13T10:02:26;97372.50;;;4.02;100.00
18167;BME280;9208;42.688;23.404;2023-02-13T10:10:17;97360.88;;;4.19;100.00
18167;BME280;9208;42.688;23.404;2023-02-13T10:18:20;97347.66;;;4.28;100.00
18167;BME280;9208;42.688;23.404;2023-02-13T10:20:50;97349.59;;;4.34;100.00
18167;BME280;9208;42.688;23.404;2023-02-13T10:30:57;97325.09;;;4.59;100.00
18167;BME280;9208;42.688;23.404;2023-02-13T10:33:33;97320.41;;;4.66;100.00
18167;BME280;9208;42.688;23.404;2023-02-13T10:36:02;97322.28;;;4.76;100.00
18167;BME280;9208;42.688;23.404;2023-02-13T10:38:32;97325.41;;;4.78;100.00
18167;BME280;9208;42.688;23.404;2023-02-13T10:43:56;97309.44;;;4.91;100.00
18167;BME280;9208;42.688;23.404;2023-02-13T10:46:40;97302.38;;;5.04;100.00
18167;BME280;9208;42.688;23.404;2023-02-13T10:49:27;97296.16;;;5.03;100.00
18167;BME280;9208;42.688;23.404;2023-02-13T10:54:52;97295.31;;;5.17;100.00
18167;BME280;9208;42.688;23.404;2023-02-13T11:00:06;97289.81;;;5.27;100.00
18167;BME280;9208;42.688;23.404;2023-02-13T11:02:34;97283.53;;;5.37;100.00
18167;BME280;9208;42.688;23.404;2023-02-13T11:05:23;97276.88;;;5.45;100.00
18167;BME280;9208;42.688;23.404;2023-02-13T11:07:49;97269.03;;;5.54;99.91
18167;BME280;9208;42.688;23.404;2023-02-13T11:10:21;97272.47;;;5.62;99.22
18167;BME280;9208;42.688;23.404;2023-02-13T11:12:47;97277.88;;;5.65;98.07
18167;BME280;9208;42.688;23.404;2023-02-13T11:17:48;97257.53;;;5.84;96.41
18167;BME280;9208;42.688;23.404;2023-02-13T11:20:34;97254.72;;;5.94;96.17
18167;BME280;9208;42.688;23.404;2023-02-13T11:23:27;97245.31;;;6.02;94.43
18167;BME280;9208;42.688;23.404;2023-02-13T11:26:13;97249.84;;;6.12;93.60
18167;BME280;9208;42.688;23.404;2023-02-13T11:28:57;97231.94;;;6.15;91.77
18167;BME280;9208;42.688;23.404;2023-02-13T11:31:30;97247.78;;;6.23;89.36
18167;BME280;9208;42.688;23.404;2023-02-13T11:33:58;97234.53;;;6.25;89.24
18167;BME280;9208;42.688;23.404;2023-02-13T11:36:27;97224.66;;;6.38;89.29
18167;BME280;9208;42.688;23.404;2023-02-13T11:39:04;97220.59;;;6.53;88.55
18167;BME280;9208;42.688;23.404;2023-02-13T11:41:37;97223.19;;;6.60;88.10
18167;BME280;9208;42.688;23.404;2023-02-13T11:44:03;97218.00;;;6.73;87.32
18167;BME280;9208;42.688;23.404;2023-02-13T11:46:42;97211.28;;;6.81;87.41
18167;BME280;9208;42.688;23.404;2023-02-13T11:49:21;97208.03;;;6.89;85.88
18167;BME280;9208;42.688;23.404;2023-02-13T11:51:49;97213.81;;;6.91;84.56
18167;BME280;9208;42.688;23.404;2023-02-13T11:54:23;97205.56;;;6.98;84.19
18167;BME280;9208;42.688;23.404;2023-02-13T11:56:51;97201.59;;;7.03;83.63
18167;BME280;9208;42.688;23.404;2023-02-13T11:59:16;97196.44;;;7.08;82.79
18167;BME280;9208;42.688;23.404;2023-02-13T12:01:42;97191.31;;;7.14;82.38
18167;BME280;9208;42.688;23.404;2023-02-13T12:06:41;97195.75;;;7.27;81.57
18167;BME280;9208;42.688;23.404;2023-02-13T12:09:21;97186.34;;;7.32;81.09
18167;BME280;9208;42.688;23.404;2023-02-13T12:11:51;97210.16;;;7.28;78.55
18167;BME280;9208;42.688;23.404;2023-02-13T12:14:24;97224.53;;;7.32;75.62
18167;BME280;9208;42.688;23.404;2023-02-13T12:17:03;97235.78;;;7.34;73.90
18167;BME280;9208;42.688;23.404;2023-02-13T12:19:41;97225.72;;;7.31;74.13
18167;BME280;9208;42.688;23.404;2023-02-13T12:22:21;97217.06;;;7.36;73.64
18167;BME280;9208;42.688;23.404;2023-02-13T12:27:53;97229.34;;;7.47;72.06
18167;BME280;9208;42.688;23.404;2023-02-13T12:33:26;97224.25;;;7.49;71.40
18167;BME280;9208;42.688;23.404;2023-02-13T12:38:47;97226.47;;;7.58;69.55
18167;BME280;9208;42.688;23.404;2023-02-13T12:49:39;97243.06;;;7.90;66.43
18167;BME280;9208;42.688;23.404;2023-02-13T12:52:35;97244.53;;;7.94;66.68
18167;BME280;9208;42.688;23.404;2023-02-13T13:09:09;97258.06;;;8.24;62.58
18167;BME280;9208;42.688;23.404;2023-02-13T13:11:51;97264.66;;;8.27;61.87
18167;BME280;9208;42.688;23.404;2023-02-13T13:14:54;97257.88;;;8.35;61.12
18167;BME280;9208;42.688;23.404;2023-02-13T13:22:58;97263.63;;;8.40;60.87
18167;BME280;9208;42.688;23.404;2023-02-13T13:25:35;97245.13;;;8.48;61.44
18167;BME280;9208;42.688;23.404;2023-02-13T13:28:15;97248.91;;;8.54;61.38
18167;BME280;9208;42.688;23.404;2023-02-13T13:30:42;97243.84;;;8.52;61.38
18167;BME280;9208;42.688;23.404;2023-02-13T13:35:46;97244.50;;;8.40;60.12
18167;BME280;9208;42.688;23.404;2023-02-13T13:40:51;97234.44;;;8.53;61.61
18167;BME280;9208;42.688;23.404;2023-02-13T13:46:15;97234.81;;;8.55;60.96
18167;BME280;9208;42.688;23.404;2023-02-13T13:51:39;97230.75;;;8.44;60.84
18167;BME280;9208;42.688;23.404;2023-02-13T13:59:24;97218.75;;;8.57;61.48
18167;BME280;9208;42.688;23.404;2023-02-13T14:07:41;97208.88;;;8.63;61.40
18167;BME280;9208;42.688;23.404;2023-02-13T14:13:00;97209.03;;;8.56;61.88
18167;BME280;9208;42.688;23.404;2023-02-13T14:28:36;97170.25;;;8.61;62.51
18167;BME280;9208;42.688;23.404;2023-02-13T14:31:25;97175.88;;;8.54;61.55
18167;BME280;9208;42.688;23.404;2023-02-13T14:34:02;97175.44;;;8.56;61.75
18167;BME280;9208;42.688;23.404;2023-02-13T14:36:40;97167.69;;;8.54;62.71
18167;BME280;9208;42.688;23.404;2023-02-13T14:39:29;97164.94;;;8.54;62.70
18167;BME280;9208;42.688;23.404;2023-02-13T14:41:58;97162.97;;;8.55;62.95
18167;BME280;9208;42.688;23.404;2023-02-13T14:47:21;97151.50;;;8.44;63.43
18167;BME280;9208;42.688;23.404;2023-02-13T14:49:44;97139.25;;;8.32;64.02
18167;BME280;9208;42.688;23.404;2023-02-13T14:52:25;97143.78;;;8.19;64.21
18167;BME280;9208;42.688;23.404;2023-02-13T14:54:57;97139.31;;;8.29;63.91
18167;BME280;9208;42.688;23.404;2023-02-13T14:57:35;97138.88;;;8.30;64.39
18167;BME280;9208;42.688;23.404;2023-02-13T15:00:27;97139.25;;;8.32;64.57
18167;BME280;9208;42.688;23.404;2023-02-13T15:03:00;97138.06;;;8.33;64.64
18167;BME280;9208;42.688;23.404;2023-02-13T15:05:36;97132.31;;;8.28;64.58
18167;BME280;9208;42.688;23.404;2023-02-13T15:08:04;97132.38;;;8.24;64.74
18167;BME280;9208;42.688;23.404;2023-02-13T15:10:51;97124.28;;;8.17;64.63
18167;BME280;9208;42.688;23.404;2023-02-13T15:13:31;97123.97;;;8.15;65.23
18167;BME280;9208;42.688;23.404;2023-02-13T15:16:09;97123.88;;;8.19;65.12
18167;BME280;9208;42.688;23.404;2023-02-13T15:18:44;97118.41;;;8.19;65.15
18167;BME280;9208;42.688;23.404;2023-02-13T15:21:18;97122.75;;;8.16;65.55
18167;BME280;9208;42.688;23.404;2023-02-13T15:23:49;97121.22;;;8.15;65.58
18167;BME280;9208;42.688;23.404;2023-02-13T15:26:20;97121.16;;;7.99;65.22
18167;BME280;9208;42.688;23.404;2023-02-13T15:29:15;97125.16;;;7.95;65.13
18167;BME280;9208;42.688;23.404;2023-02-13T15:31:41;97115.13;;;7.88;65.57
18167;BME280;9208;42.688;23.404;2023-02-13T15:34:28;97115.63;;;7.83;65.54
18167;BME280;9208;42.688;23.404;2023-02-13T15:36:54;97115.63;;;7.83;65.63
18167;BME280;9208;42.688;23.404;2023-02-13T15:39:28;97113.72;;;7.80;66.09
18167;BME280;9208;42.688;23.404;2023-02-13T15:41:57;97112.19;;;7.79;66.01
18167;BME280;9208;42.688;23.404;2023-02-13T15:44:34;97101.41;;;7.72;66.92
18167;BME280;9208;42.688;23.404;2023-02-13T15:47:15;97118.56;;;7.73;66.75
18167;BME280;9208;42.688;23.404;2023-02-13T15:49:44;97118.22;;;7.71;66.79
18167;BME280;9208;42.688;23.404;2023-02-13T15:52:22;97109.03;;;7.61;66.68